Latest Weather Observations for Collie East

IDW60801

Issued at 6:33 pm WST Saturday 16 December 2017 (issued every 30 minutes, with the page automatically refreshed every 10 minutes)

About weather observations | Map of weather stations | Latest weather observations for WA | Other Formats
Station Details ID: 009994 Name: COLLIE EAST Lat: -33.36 Lon: 116.17 Height: 200.0 m
Data from the previous 72 hours. | See also: Recent months at Collie East
Date/Time
WST
Temp
°C
App
Temp
°C
Dew
Point
°C
Rel
Hum
%
Delta-T
°C
Wind Press
QNH
hPa
Press
MSL
hPa
Rain since
9am
mm
Dir  Spd
km/h
Gust
km/h
Spd
kts
Gust
kts
16/06:30pm 18.8 16.4 11.4 62 4.1 WNW 15 37 8 20 - - 0.0
16/06:00pm 19.1 16.3 11.4 61 4.3 WNW 17 33 9 18 - - 0.0
16/05:30pm 21.2 18.9 11.8 55 5.3 WNW 15 32 8 17 - - 0.0
16/05:00pm 21.7 18.3 11.4 52 5.8 NW 20 39 11 21 - - 0.0
16/04:30pm 23.3 21.2 12.3 50 6.3 WNW 15 30 8 16 - - 0.0
16/04:00pm 23.9 21.6 11.9 47 6.9 W 15 28 8 15 - - 0.0
16/03:30pm 25.2 22.4 11.4 42 7.9 WNW 17 30 9 16 - - 0.0
16/03:00pm 26.5 23.0 10.2 36 9.2 W 19 30 10 16 - - 0.0
16/02:30pm 26.5 23.8 10.2 36 9.2 W 15 30 8 16 - - 0.0
16/02:00pm 27.6 24.0 8.5 30 10.5 WNW 17 28 9 15 - - 0.0
16/01:30pm 28.0 24.4 6.7 26 11.4 WNW 15 26 8 14 - - 0.0
16/01:00pm 28.5 25.0 7.1 26 11.5 W 15 26 8 14 - - 0.0
16/12:30pm 27.9 25.3 10.6 34 9.9 WNW 15 32 8 17 - - 0.0
16/12:00pm 27.7 25.5 10.9 35 9.6 W 13 22 7 12 - - 0.0
16/11:30am 27.5 26.3 12.7 40 8.7 W 11 20 6 11 - - 0.0
16/11:00am 26.2 25.6 12.3 42 8.1 NNW 7 17 4 9 - - 0.0
16/10:30am 25.5 24.8 14.3 50 6.7 NNW 11 17 6 9 - - 0.0
16/10:00am 24.4 23.7 12.0 46 7.1 WNW 7 11 4 6 - - 0.0
16/09:30am 23.4 23.1 12.7 51 6.2 NNW 6 13 3 7 - - 0.0
16/09:00am 22.5 21.9 12.4 52 5.8 NE 7 13 4 7 - - 0.0
16/08:30am 21.1 20.9 13.0 60 4.7 NE 6 13 3 7 - - 0.0
16/08:00am 20.0 19.5 12.5 62 4.3 ENE 7 13 4 7 - - 0.0
16/07:30am 18.2 17.2 12.2 68 3.4 ESE 9 15 5 8 - - 0.0
16/07:00am 17.8 16.7 12.0 69 3.2 E 9 15 5 8 - - 0.0
16/06:30am 16.7 15.6 11.8 73 2.7 E 9 15 5 8 - - 0.0
16/06:00am 16.3 16.2 12.1 76 2.3 E 4 7 2 4 - - 0.0
16/05:30am 15.1 14.4 11.5 79 2.0 ESE 6 9 3 5 - - 0.0
16/05:00am 15.8 14.6 11.6 76 2.3 E 9 15 5 8 - - 0.0
16/04:30am 16.2 15.4 11.8 75 2.4 E 7 13 4 7 - - 0.0
16/04:00am 16.4 14.9 12.0 75 2.4 ENE 11 22 6 12 - - 0.0
16/03:30am 16.1 15.6 12.5 79 2.0 E 7 20 4 11 - - 0.0
16/03:00am 13.9 14.4 11.6 86 1.2 CALM 0 0 0 0 - - 0.0
16/02:30am 13.3 13.6 11.0 86 1.2 CALM 0 0 0 0 - - 0.0
16/02:00am 13.6 13.9 10.9 84 1.4 CALM 0 0 0 0 - - 0.0
16/01:30am 14.2 14.2 11.0 81 1.7 SE 2 7 1 4 - - 0.0
16/01:00am 15.0 15.1 11.4 79 1.9 SE 2 7 1 4 - - 0.0
16/12:30am 16.0 15.4 11.8 76 2.3 SE 6 9 3 5 - - 0.0
16/12:00am 16.6 15.8 11.7 73 2.7 SE 7 13 4 7 - - 0.0
 
Date/Time
WST
Temp
°C
App
Temp
°C
Dew
Point
°C
Rel
Hum
%
Delta-T
°C
Wind Press
QNH
hPa
Press
MSL
hPa
Rain since
9am
mm
Dir  Spd
km/h
Gust
km/h
Spd
kts
Gust
kts
15/11:30pm 16.8 16.3 11.9 73 2.7 SE 6 11 3 6 - - 0.0
15/11:00pm 17.6 16.9 12.1 70 3.1 SSE 7 13 4 7 - - 0.0
15/10:30pm 18.3 17.6 12.1 67 3.5 SSE 7 15 4 8 - - 0.0
15/10:00pm 18.6 18.1 12.1 66 3.6 S 6 13 3 7 - - 0.0
15/09:30pm 19.1 18.4 11.9 63 4.0 S 7 11 4 6 - - 0.0
15/09:00pm 20.4 19.8 12.4 60 4.5 S 7 15 4 8 - - 0.0
15/08:30pm 21.0 20.6 12.4 58 4.9 S 6 11 3 6 - - 0.0
15/08:00pm 21.8 21.2 12.4 55 5.4 SSW 7 15 4 8 - - 0.0
15/07:30pm 22.7 21.8 10.8 47 6.6 SSW 6 9 3 5 - - 0.0
15/07:00pm 24.6 23.8 9.7 39 8.2 S 4 9 2 5 - - 0.0
15/06:30pm 26.4 24.9 8.4 32 9.8 SSW 6 11 3 6 - - 0.0
15/06:00pm 27.8 26.5 9.1 31 10.4 S 6 11 3 6 - - 0.0
15/05:30pm 27.8 25.9 9.1 31 10.4 SW 9 15 5 8 - - 0.0
15/05:00pm 28.4 26.4 7.1 26 11.5 SSW 7 15 4 8 - - 0.0
15/04:30pm 27.6 25.7 9.0 31 10.3 SSW 9 19 5 10 - - 0.0
15/04:00pm 27.9 26.4 9.2 31 10.4 SSW 7 13 4 7 - - 0.0
15/03:30pm 27.8 25.2 7.6 28 10.9 WSW 11 17 6 9 - - 0.0
15/03:00pm 28.4 26.6 8.1 28 11.1 SW 7 17 4 9 - - 0.0
15/02:30pm 27.7 25.9 8.1 29 10.7 WSW 7 13 4 7 - - 0.0
15/02:00pm 28.9 27.5 9.6 30 10.9 SW 7 15 4 8 - - 0.0
15/01:30pm 27.5 25.4 6.8 27 11.0 SSE 7 13 4 7 - - 0.0
15/01:00pm 27.0 24.4 5.9 26 11.1 W 9 15 5 8 - - 0.0
15/12:30pm 27.5 25.6 8.9 31 10.3 S 9 15 5 8 - - 0.0
15/12:00pm 24.9 23.6 10.0 39 8.3 WNW 7 11 4 6 - - 0.0
15/11:30am 25.6 23.8 9.4 36 8.9 SSW 9 15 5 8 - - 0.0
15/11:00am 24.4 23.5 9.2 38 8.3 S 4 13 2 7 - - 0.0
15/10:30am 23.2 21.4 9.6 42 7.4 SSE 9 15 5 8 - - 0.0
15/10:00am 22.3 21.5 11.7 51 6.0 SSW 7 13 4 7 - - 0.0
15/09:30am 21.0 19.9 10.8 52 5.6 E 7 15 4 8 - - 0.0
15/09:00am 20.1 18.6 10.5 54 5.3 E 9 13 5 7 - - 0.0
15/08:30am 18.9 17.4 10.7 59 4.5 E 9 17 5 9 - - 0.0
15/08:00am 17.8 15.3 10.9 64 3.8 ENE 15 20 8 11 - - 0.0
15/07:30am 17.1 15.3 10.9 67 3.4 E 11 15 6 8 - - 0.0
15/07:00am 15.8 14.9 11.4 75 2.4 ESE 7 13 4 7 - - 0.0
15/06:30am 12.5 12.4 10.9 90 0.8 SSE 2 7 1 4 - - 0.0
15/06:00am 10.5 10.3 9.1 91 0.7 CALM 0 0 0 0 - - 0.0
15/05:30am 10.0 8.9 8.6 91 0.7 S 4 7 2 4 - - 0.0
15/05:00am 10.0 9.6 8.4 90 0.8 CALM 0 0 0 0 - - 0.0
15/04:30am 10.3 10.0 8.7 90 0.8 CALM 0 0 0 0 - - 0.0
15/04:00am 10.6 10.4 8.9 89 0.8 CALM 0 0 0 0 - - 0.0
15/03:30am 10.7 10.5 9.0 89 0.9 CALM 0 0 0 0 - - 0.0
15/03:00am 10.9 10.7 9.0 88 1.0 CALM 0 0 0 0 - - 0.0
15/02:30am 11.2 11.1 9.3 88 1.0 CALM 0 0 0 0 - - 0.0
15/02:00am 11.5 11.4 9.6 88 1.0 CALM 0 0 0 0 - - 0.0
15/01:30am 11.5 11.3 9.2 86 1.2 CALM 0 0 0 0 - - 0.0
15/01:00am 12.3 12.3 9.9 85 1.2 CALM 0 0 0 0 - - 0.0
15/12:30am 12.8 12.8 9.8 82 1.6 CALM 0 0 0 0 - - 0.0
15/12:00am 13.7 13.8 10.3 80 1.8 CALM 0 0 0 0 - - 0.0
 
Date/Time
WST
Temp
°C
App
Temp
°C
Dew
Point
°C
Rel
Hum
%
Delta-T
°C
Wind Press
QNH
hPa
Press
MSL
hPa
Rain since
9am
mm
Dir  Spd
km/h
Gust
km/h
Spd
kts
Gust
kts
14/11:30pm 14.3 14.1 10.3 77 2.1 S 2 6 1 3 - - 0.0
14/11:00pm 15.2 15.0 10.4 73 2.5 SSE 2 6 1 3 - - 0.0
14/10:30pm 16.0 15.1 10.5 70 2.9 S 6 11 3 6 - - 0.0
14/10:00pm 16.6 15.6 10.9 69 3.1 S 7 13 4 7 - - 0.0
14/09:30pm 17.5 16.8 11.3 67 3.4 S 6 13 3 7 - - 0.0
14/09:00pm 18.1 17.4 11.4 65 3.7 S 6 11 3 6 - - 0.0
14/08:30pm 19.2 18.0 11.5 61 4.3 S 9 17 5 9 - - 0.0
14/08:00pm 20.2 19.0 11.7 58 4.8 SSW 9 19 5 10 - - 0.0
14/07:30pm 21.3 20.8 12.2 56 5.2 SSW 6 9 3 5 - - 0.0
14/07:00pm 22.7 21.7 12.3 52 6.0 SW 9 19 5 10 - - 0.0
14/06:30pm 23.8 23.2 13.4 52 6.1 W 9 15 5 8 - - 0.0
14/06:00pm 25.0 23.9 13.2 48 6.9 W 11 20 6 11 - - 0.0
14/05:30pm 25.3 23.9 13.5 48 7.0 W 13 20 7 11 - - 0.0
14/05:00pm 26.3 24.9 13.4 45 7.6 WSW 13 24 7 13 - - 0.0
14/04:30pm 26.8 24.6 12.1 40 8.5 WSW 15 24 8 13 - - 0.0
14/04:00pm 27.1 25.4 12.3 39 8.6 W 13 24 7 13 - - 0.0
14/03:30pm 27.3 25.2 11.3 37 9.2 WSW 13 20 7 11 - - 0.0
14/03:00pm 27.5 25.8 9.8 33 9.9 W 9 15 5 8 - - 0.0
14/02:30pm 27.4 25.2 9.3 32 10.1 WSW 11 22 6 12 - - 0.0
14/02:00pm 25.6 23.9 9.8 37 8.8 WNW 9 19 5 10 - - 0.0
14/01:30pm 27.5 26.2 9.8 33 9.9 WSW 7 15 4 8 - - 0.0
14/01:00pm 25.5 24.1 9.7 37 8.8 NNE 7 11 4 6 - - 0.0
14/12:30pm 25.1 23.7 9.4 37 8.6 W 7 15 4 8 - - 0.0
14/12:00pm 24.1 22.3 8.1 36 8.6 ESE 7 11 4 6 - - 0.0
14/11:30am 23.0 21.5 9.0 41 7.6 N 7 13 4 7 - - 0.0
14/11:00am 21.8 19.9 9.0 44 6.9 NNW 9 17 5 9 - - 0.0
14/10:30am 22.2 21.6 11.6 51 6.0 N 6 11 3 6 - - 0.0
14/10:00am 20.9 19.8 11.8 56 5.1 NNW 9 15 5 8 - - 0.0
14/09:30am 20.9 19.8 10.7 52 5.6 SE 7 13 4 7 - - 0.0
14/09:00am 19.7 18.7 10.4 55 5.1 SE 6 13 3 7 - - 0.0
14/08:30am 18.8 17.8 11.1 61 4.2 SSE 7 11 4 6 - - 0.0
14/08:00am 17.8 16.3 10.7 63 3.8 SE 9 13 5 7 - - 0.0
14/07:30am 16.0 15.3 11.4 74 2.5 SW 6 9 3 5 - - 0.0
14/07:00am 13.8 14.0 10.6 81 1.7 CALM 0 0 0 0 - - 0.0
14/06:30am 11.8 11.9 10.0 89 0.9 CALM 0 0 0 0 - - 0.0
14/06:00am 9.7 9.3 8.1 90 0.8 CALM 0 0 0 0 - - 0.0
14/05:30am 8.3 7.6 6.8 90 0.7 CALM 0 0 0 0 - - 0.0
14/05:00am 8.0 7.2 6.5 90 0.7 CALM 0 0 0 0 - - 0.0
14/04:30am 8.5 7.8 7.0 90 0.7 CALM 0 0 0 0 - - 0.0
14/04:00am 8.9 8.3 7.4 90 0.7 CALM 0 0 0 0 - - 0.0
14/03:30am 8.9 8.3 7.2 89 0.8 CALM 0 0 0 0 - - 0.0
14/03:00am 9.3 8.7 7.4 88 0.9 CALM 0 0 0 0 - - 0.0
14/02:30am 9.9 9.4 8.0 88 0.9 CALM 0 0 0 0 - - 0.0
14/02:00am 9.9 9.4 7.7 86 1.1 CALM 0 0 0 0 - - 0.0
14/01:30am 10.7 10.4 8.5 86 1.1 CALM 0 0 0 0 - - 0.0
14/01:00am 11.1 10.8 8.5 84 1.3 CALM 0 0 0 0 - - 0.0
14/12:30am 11.6 11.3 8.8 83 1.4 CALM 0 0 0 0 - - 0.0
14/12:00am 12.1 11.9 8.9 81 1.6 CALM 0 0 0 0 - - 0.0
 
Date/Time
WST
Temp
°C
App
Temp
°C
Dew
Point
°C
Rel
Hum
%
Delta-T
°C
Wind Press
QNH
hPa
Press
MSL
hPa
Rain since
9am
mm
Dir  Spd
km/h
Gust
km/h
Spd
kts
Gust
kts
13/11:30pm 12.8 12.6 9.1 78 1.9 CALM 0 0 0 0 - - 0.0
13/11:00pm 13.4 13.2 9.1 75 2.2 CALM 0 6 0 3 - - 0.0
13/10:30pm 13.7 13.6 9.4 75 2.2 CALM 0 0 0 0 - - 0.0
13/10:00pm 14.5 14.3 9.1 70 2.8 CALM 0 0 0 0 - - 0.0
13/09:30pm 15.4 14.5 9.1 66 3.3 S 4 7 2 4 - - 0.0
13/09:00pm 16.3 14.9 9.0 62 3.8 SSW 6 9 3 5 - - 0.0
13/08:30pm 17.0 15.6 8.9 59 4.2 S 6 9 3 5 - - 0.0
13/08:00pm 18.0 16.4 8.6 54 4.9 SSW 7 13 4 7 - - 0.0
13/07:30pm 18.9 17.3 8.8 52 5.3 SSW 7 13 4 7 - - 0.0
13/07:00pm 20.3 18.3 8.6 47 6.2 SSW 9 17 5 9 - - 0.0

Other Formats:

Comma delimited format used in spreadsheet applications
http://www.bom.gov.au/fwo/IDW60801/IDW60801.95621.axf

JavaScript Object Notation format (JSON) in row-major order
http://www.bom.gov.au/fwo/IDW60801/IDW60801.95621.json